Temp: 11.3°C   Baro: 1005.2mb
  Wind: 8.1mph   Dir: NNW (329°)
  Rain: 7.8mm (0.0mm/hr)
  Solar: 42W/m2  Hum: 92%
 
Bath Spa Weather Historical Data
Daily Summary for January 27, 2020 Units:  Metric    English   Both
Next Day »
Daily Weekly Monthly Yearly Custom
  High: Low: Average:
Temperature: 8.6 °C 4.1 °C 6.9 °C
Dew Point: 6.5 °C 2.6 °C 5 °C
Humidity: 94% 80% 88%
Wind Speed: 19.5km/h 0.0km/h 5.5km/h
Wind Gust: 33.8km/h - -
Wind direction- - SW
Pressure: 1004.6 hPa 989.4 hPa -
Precipitation: 1.5 mm    
Historical Graphs
 
 
Tabular Data for January 27, 2020
Time Temperature Dew Point Pressure Wind direction Wind Speed Wind Gust Humidity Rainfall Rate (Hourly) solar
00:00 7.1 °C 6.2 °C 1004.3 hPa Calm   3.2 km/h 94% 0.0 mm 0.00 W/m2
00:05 7.0 °C 6.1 °C 1004.3 hPa WNW 1.4 km/h 3.2 km/h 94% 0.0 mm 0.00 W/m2
00:10 7.0 °C 6.1 °C 1004.3 hPa SSW 4.7 km/h 9.7 km/h 94% 0.0 mm 0.00 W/m2
00:15 7.1 °C 6.2 °C 1004.6 hPa WSW 3.2 km/h 6.4 km/h 94% 0.0 mm 0.00 W/m2
00:21 7.0 °C 6.1 °C 1004.3 hPa West 3.2 km/h 8.0 km/h 94% 0.0 mm 0.00 W/m2
00:25 6.9 °C 6.0 °C 1004.3 hPa Calm     94% 0.0 mm 0.00 W/m2
00:30 6.9 °C 6.0 °C 1004.3 hPa SSW 3.2 km/h 4.8 km/h 94% 0.0 mm 0.00 W/m2
00:35 7.1 °C 6.2 °C 1004.3 hPa SSW 4.7 km/h 14.5 km/h 94% 0.0 mm 0.00 W/m2
00:40 7.1 °C 6.2 °C 1003.9 hPa WSW 4.7 km/h 4.8 km/h 94% 0.0 mm 0.00 W/m2
00:45 7.1 °C 6.2 °C 1003.9 hPa West 6.4 km/h 6.4 km/h 94% 0.0 mm 0.00 W/m2
00:50 7.0 °C 6.1 °C 1003.9 hPa WNW 3.2 km/h 9.7 km/h 94% 0.0 mm 0.00 W/m2
00:55 6.9 °C 6.0 °C 1003.9 hPa West 3.2 km/h 11.3 km/h 94% 0.0 mm 0.00 W/m2
01:00 7.0 °C 6.1 °C 1003.9 hPa WNW 4.7 km/h 9.7 km/h 94% 0.0 mm 0.00 W/m2
01:05 7.1 °C 6.2 °C 1003.9 hPa SW 4.7 km/h 11.3 km/h 94% 0.0 mm 0.00 W/m2
01:10 7.3 °C 6.4 °C 1003.9 hPa West 7.9 km/h 8.0 km/h 94% 0.0 mm 0.00 W/m2
01:15 7.3 °C 6.4 °C 1003.9 hPa SW 9.7 km/h 16.1 km/h 94% 0.0 mm 0.00 W/m2
01:20 7.4 °C 6.3 °C 1003.6 hPa SW 7.9 km/h 11.3 km/h 93% 0.0 mm 0.00 W/m2
01:25 7.4 °C 6.3 °C 1003.6 hPa SW 11.1 km/h 11.3 km/h 93% 0.0 mm 0.00 W/m2
01:30 7.5 °C 6.4 °C 1003.6 hPa SSW 4.7 km/h 16.1 km/h 93% 0.0 mm 0.00 W/m2
01:35 7.4 °C 6.3 °C 1003.3 hPa SW 4.7 km/h 11.3 km/h 93% 0.0 mm 0.00 W/m2
01:40 7.4 °C 6.3 °C 1003.6 hPa SSW 4.7 km/h 8.0 km/h 93% 0.0 mm 0.00 W/m2
01:45 7.4 °C 6.3 °C 1003.3 hPa South 3.2 km/h 9.7 km/h 93% 0.0 mm 0.00 W/m2
01:50 7.4 °C 6.3 °C 1003.3 hPa SW 9.7 km/h 14.5 km/h 93% 0.0 mm 0.00 W/m2
01:55 7.6 °C 6.5 °C 1003.3 hPa SW 9.7 km/h 11.3 km/h 93% 0.0 mm 0.00 W/m2
02:00 7.6 °C 6.4 °C 1003.3 hPa SSW 7.9 km/h 14.5 km/h 92% 0.0 mm 0.00 W/m2
02:05 7.6 °C 6.4 °C 1003.3 hPa WSW 4.7 km/h 17.7 km/h 92% 0.0 mm 0.00 W/m2
02:10 7.7 °C 6.5 °C 1003.3 hPa SSW 7.9 km/h 11.3 km/h 92% 0.0 mm 0.00 W/m2
02:15 7.7 °C 6.5 °C 1003.3 hPa WSW 6.4 km/h 14.5 km/h 92% 0.0 mm 0.00 W/m2
02:20 7.7 °C 6.5 °C 1003.3 hPa WSW 4.7 km/h 6.4 km/h 92% 0.0 mm 0.00 W/m2
02:25 7.7 °C 6.5 °C 1003.3 hPa SW 7.9 km/h 8.0 km/h 92% 0.0 mm 0.00 W/m2
02:30 7.6 °C 6.2 °C 1002.9 hPa SW 6.4 km/h 8.0 km/h 91% 0.0 mm 0.00 W/m2
02:35 7.6 °C 6.2 °C 1002.9 hPa SSW 11.1 km/h 16.1 km/h 91% 0.0 mm 0.00 W/m2
02:40 7.7 °C 6.3 °C 1002.9 hPa South 9.7 km/h 16.1 km/h 91% 0.0 mm 0.00 W/m2
02:45 7.7 °C 6.3 °C 1003.3 hPa SSW 6.4 km/h 12.9 km/h 91% 0.0 mm 0.00 W/m2
02:50 7.7 °C 6.3 °C 1002.9 hPa WSW 7.9 km/h 11.3 km/h 91% 0.0 mm 0.00 W/m2
02:55 7.7 °C 6.3 °C 1002.9 hPa South 11.1 km/h 16.1 km/h 91% 0.0 mm 0.00 W/m2
03:00 7.7 °C 6.2 °C 1002.9 hPa SSW 11.1 km/h 16.1 km/h 90% 0.0 mm 0.00 W/m2
03:05 7.7 °C 6.3 °C 1002.9 hPa SW 11.1 km/h 14.5 km/h 91% 0.0 mm 0.00 W/m2
03:10 7.8 °C 6.4 °C 1002.9 hPa SW 9.7 km/h 12.9 km/h 91% 0.0 mm 0.00 W/m2
03:15 7.8 °C 6.3 °C 1002.9 hPa WSW 13.0 km/h 14.5 km/h 90% 0.0 mm 0.00 W/m2
03:20 7.8 °C 6.3 °C 1002.9 hPa South 6.4 km/h 12.9 km/h 90% 0.0 mm 0.00 W/m2
03:25 7.8 °C 6.3 °C 1002.6 hPa WSW 9.7 km/h 16.1 km/h 90% 0.0 mm 0.00 W/m2
03:30 7.9 °C 6.4 °C 1002.6 hPa SSW 7.9 km/h 9.7 km/h 90% 0.0 mm 0.00 W/m2
03:35 7.8 °C 6.3 °C 1002.6 hPa SW 7.9 km/h 11.3 km/h 90% 0.0 mm 0.00 W/m2
03:40 7.9 °C 6.4 °C 1002.6 hPa SW 11.1 km/h 14.5 km/h 90% 0.0 mm 0.00 W/m2
03:45 7.9 °C 6.4 °C 1002.6 hPa SW 9.7 km/h 9.7 km/h 90% 0.0 mm 0.00 W/m2
03:51 7.8 °C 6.3 °C 1002.6 hPa SSW 6.4 km/h 14.5 km/h 90% 0.0 mm 0.00 W/m2
03:55 7.8 °C 6.3 °C 1002.6 hPa South 6.4 km/h 14.5 km/h 90% 0.0 mm 0.00 W/m2
04:00 7.8 °C 6.3 °C 1002.3 hPa South 9.7 km/h 12.9 km/h 90% 0.0 mm 0.00 W/m2
04:05 7.9 °C 6.4 °C 1002.3 hPa SSW 7.9 km/h 16.1 km/h 90% 0.0 mm 0.00 W/m2
04:10 7.9 °C 6.4 °C 1002.3 hPa SSW 6.4 km/h 11.3 km/h 90% 0.0 mm 0.00 W/m2
04:15 8.0 °C 6.5 °C 1002.3 hPa SW 6.4 km/h 12.9 km/h 90% 0.0 mm 0.00 W/m2
04:20 8.1 °C 6.4 °C 1002.3 hPa SW 13.0 km/h 20.9 km/h 89% 0.0 mm 0.00 W/m2
04:25 8.1 °C 6.2 °C 1001.9 hPa SSW 7.9 km/h 20.9 km/h 88% 0.0 mm 0.00 W/m2
04:30 8.1 °C 6.1 °C 1002.3 hPa West 16.3 km/h 17.7 km/h 87% 0.0 mm 0.00 W/m2
04:35 8.1 °C 5.9 °C 1001.9 hPa WSW 14.3 km/h 20.9 km/h 86% 0.0 mm 0.00 W/m2
04:40 8.0 °C 5.6 °C 1001.9 hPa SW 16.3 km/h 17.7 km/h 85% 0.0 mm 0.00 W/m2
04:45 7.9 °C 5.4 °C 1001.9 hPa WSW 17.7 km/h 29.0 km/h 84% 0.0 mm 0.00 W/m2
04:50 7.9 °C 5.4 °C 1001.9 hPa WSW 19.5 km/h 25.7 km/h 84% 0.0 mm 0.00 W/m2
04:55 7.8 °C 5.3 °C 1001.9 hPa SW 17.7 km/h 17.7 km/h 84% 0.0 mm 0.00 W/m2
05:01 7.7 °C 5.2 °C 1001.9 hPa West 16.3 km/h 24.1 km/h 84% 0.0 mm 0.00 W/m2
05:05 7.6 °C 5.1 °C 1001.9 hPa West 7.9 km/h 19.3 km/h 84% 0.0 mm 0.00 W/m2
05:10 7.5 °C 5.0 °C 1001.9 hPa SW 7.9 km/h 22.5 km/h 84% 0.0 mm 0.00 W/m2
05:15 7.4 °C 4.9 °C 1001.9 hPa WSW 13.0 km/h 20.9 km/h 84% 0.0 mm 0.00 W/m2
05:20 7.4 °C 5.0 °C 1001.9 hPa WSW 13.0 km/h 17.7 km/h 85% 0.0 mm 0.00 W/m2
05:25 7.3 °C 4.9 °C 1001.9 hPa SW 4.7 km/h 19.3 km/h 85% 0.0 mm 0.00 W/m2
05:30 7.2 °C 4.8 °C 1001.9 hPa WSW 7.9 km/h 16.1 km/h 85% 0.0 mm 0.00 W/m2
05:35 7.2 °C 4.8 °C 1001.9 hPa West 6.4 km/h 9.7 km/h 85% 0.0 mm 0.00 W/m2
05:40 7.1 °C 4.9 °C 1001.9 hPa SW 6.4 km/h 11.3 km/h 86% 0.0 mm 0.00 W/m2
05:45 7.1 °C 4.9 °C 1002.3 hPa West 11.1 km/h 17.7 km/h 86% 0.0 mm 0.00 W/m2
05:50 7.0 °C 4.8 °C 1001.9 hPa West 6.4 km/h 8.0 km/h 86% 0.0 mm 0.00 W/m2
05:55 6.9 °C 4.7 °C 1001.9 hPa West 4.7 km/h 8.0 km/h 86% 0.0 mm 0.00 W/m2
06:00 6.8 °C 4.6 °C 1001.9 hPa Calm   6.4 km/h 86% 0.0 mm 0.00 W/m2
06:05 6.8 °C 4.6 °C 1001.9 hPa WSW 4.7 km/h 4.8 km/h 86% 0.0 mm 0.00 W/m2
06:10 6.7 °C 4.5 °C 1001.9 hPa West 4.7 km/h 4.8 km/h 86% 0.0 mm 0.00 W/m2
06:15 6.7 °C 4.7 °C 1001.9 hPa SSW 3.2 km/h 9.7 km/h 87% 0.0 mm 0.00 W/m2
06:20 6.7 °C 4.7 °C 1001.9 hPa SW 3.2 km/h 6.4 km/h 87% 0.0 mm 0.00 W/m2
06:25 6.7 °C 4.7 °C 1001.9 hPa West 9.7 km/h 9.7 km/h 87% 0.0 mm 0.00 W/m2
06:30 6.6 °C 4.6 °C 1001.9 hPa SW 6.4 km/h 6.4 km/h 87% 0.0 mm 0.00 W/m2
06:35 6.6 °C 4.6 °C 1001.9 hPa SW 4.7 km/h 11.3 km/h 87% 0.0 mm 0.00 W/m2
06:40 6.6 °C 4.6 °C 1001.9 hPa Calm   4.8 km/h 87% 0.0 mm 0.00 W/m2
06:45 6.5 °C 4.5 °C 1001.9 hPa West 3.2 km/h 8.0 km/h 87% 0.0 mm 0.00 W/m2
06:50 6.4 °C 4.4 °C 1001.9 hPa SW 1.4 km/h 6.4 km/h 87% 0.0 mm 0.00 W/m2
06:55 6.3 °C 4.3 °C 1001.9 hPa West 4.7 km/h 4.8 km/h 87% 0.0 mm 0.00 W/m2
07:00 6.2 °C 4.2 °C 1001.9 hPa Calm   1.6 km/h 87% 0.0 mm 0.00 W/m2
07:05 6.1 °C 4.3 °C 1001.9 hPa SW 4.7 km/h 6.4 km/h 88% 0.0 mm 0.00 W/m2
07:10 6.1 °C 4.3 °C 1001.9 hPa West 6.4 km/h 6.4 km/h 88% 0.0 mm 0.00 W/m2
07:15 6.1 °C 4.3 °C 1001.9 hPa West 3.2 km/h 3.2 km/h 88% 0.0 mm 0.00 W/m2
07:20 6.1 °C 4.3 °C 1001.9 hPa West 11.3 km/h 11.3 km/h 88% 0.0 mm 0.00 W/m2
07:25 6.1 °C 4.3 °C 1001.9 hPa WSW 6.4 km/h 6.4 km/h 88% 0.0 mm 0.00 W/m2
07:30 6.1 °C 4.3 °C 1001.6 hPa Calm   4.8 km/h 88% 0.0 mm 0.00 W/m2
07:35 6.1 °C 4.3 °C 1001.6 hPa SW 4.7 km/h 6.4 km/h 88% 0.0 mm 0.00 W/m2
07:40 6.1 °C 4.3 °C 1001.6 hPa Calm   3.2 km/h 88% 0.0 mm 0.00 W/m2
07:45 6.1 °C 4.3 °C 1001.6 hPa Calm   1.6 km/h 88% 0.0 mm 0.00 W/m2
07:50 6.0 °C 4.2 °C 1001.6 hPa SW 1.4 km/h 3.2 km/h 88% 0.0 mm 0.00 W/m2
07:55 5.9 °C 4.2 °C 1001.6 hPa SW 1.4 km/h 3.2 km/h 89% 0.0 mm 0.00 W/m2
08:00 5.9 °C 4.2 °C 1001.6 hPa SW 1.4 km/h 4.8 km/h 89% 0.0 mm 0.00 W/m2
08:05 5.8 °C 4.1 °C 1001.2 hPa SW 1.4 km/h 3.2 km/h 89% 0.0 mm 5.00 W/m2
08:10 5.7 °C 4.0 °C 1001.6 hPa SW 1.4 km/h 3.2 km/h 89% 0.0 mm 5.00 W/m2
08:15 5.6 °C 3.9 °C 1001.6 hPa SW 1.4 km/h 3.2 km/h 89% 0.0 mm 9.00 W/m2
08:20 5.5 °C 3.8 °C 1001.6 hPa SW 1.4 km/h 3.2 km/h 89% 0.0 mm 12.00 W/m2
08:25 5.4 °C 3.9 °C 1001.6 hPa SW 1.4 km/h 3.2 km/h 90% 0.0 mm 14.00 W/m2
08:30 5.3 °C 3.8 °C 1001.2 hPa SW 1.4 km/h 3.2 km/h 90% 0.0 mm 19.00 W/m2
08:35 5.2 °C 3.7 °C 1001.2 hPa SW 1.4 km/h 3.2 km/h 90% 0.0 mm 21.00 W/m2
08:40 5.3 °C 3.8 °C 1001.2 hPa SE 3.2 km/h 4.8 km/h 90% 0.0 mm 21.00 W/m2
08:45 5.6 °C 4.1 °C 1001.6 hPa ENE 7.9 km/h 8.0 km/h 90% 0.0 mm 21.00 W/m2
08:50 5.8 °C 4.4 °C 1001.6 hPa ENE 3.2 km/h 4.8 km/h 91% 0.0 mm 26.00 W/m2
08:55 5.8 °C 4.4 °C 1001.2 hPa NE 4.7 km/h 6.4 km/h 91% 0.0 mm 33.00 W/m2
09:00 5.9 °C 4.5 °C 1001.6 hPa NNE 4.7 km/h 4.8 km/h 91% 0.0 mm 42.00 W/m2
09:05 6.1 °C 4.7 °C 1001.2 hPa Calm   4.8 km/h 91% 0.0 mm 56.00 W/m2
09:10 6.2 °C 4.8 °C 1001.2 hPa NE 3.2 km/h 8.0 km/h 91% 0.0 mm 65.00 W/m2
09:15 6.4 °C 4.9 °C 1001.2 hPa NW 1.4 km/h 3.2 km/h 90% 0.0 mm 67.00 W/m2
09:20 6.4 °C 4.9 °C 1001.2 hPa Calm   3.2 km/h 90% 0.0 mm 77.00 W/m2
09:25 6.5 °C 5.0 °C 1001.2 hPa NE 6.4 km/h 6.4 km/h 90% 0.0 mm 88.00 W/m2
09:30 6.6 °C 5.1 °C 1001.2 hPa NE 4.7 km/h 8.0 km/h 90% 0.0 mm 90.00 W/m2
09:35 6.6 °C 5.1 °C 1000.9 hPa ENE 1.4 km/h 3.2 km/h 90% 0.0 mm 90.00 W/m2
09:40 6.7 °C 5.2 °C 1000.9 hPa NE 6.4 km/h 8.0 km/h 90% 0.0 mm 90.00 W/m2
09:45 6.9 °C 5.4 °C 1000.6 hPa NE 3.2 km/h 4.8 km/h 90% 0.0 mm 97.00 W/m2
09:50 7.0 °C 5.5 °C 1000.6 hPa ENE 1.4 km/h 3.2 km/h 90% 0.0 mm 98.00 W/m2
09:55 7.0 °C 5.5 °C 1000.6 hPa SE 1.4 km/h 3.2 km/h 90% 0.0 mm 83.00 W/m2
10:00 7.1 °C 5.6 °C 1000.6 hPa SE 1.4 km/h 3.2 km/h 90% 0.0 mm 81.00 W/m2
10:05 7.1 °C 5.6 °C 1000.6 hPa SE 3.2 km/h 4.8 km/h 90% 0.0 mm 86.00 W/m2
10:10 7.1 °C 5.6 °C 1000.6 hPa Calm   4.8 km/h 90% 0.0 mm 88.00 W/m2
10:15 7.1 °C 5.6 °C 1000.6 hPa West 4.7 km/h 4.8 km/h 90% 0.0 mm 95.00 W/m2
10:20 7.2 °C 5.7 °C 1000.6 hPa West 3.2 km/h 3.2 km/h 90% 0.0 mm 98.00 W/m2
10:25 7.2 °C 5.7 °C 1000.6 hPa West 3.2 km/h 3.2 km/h 90% 0.0 mm 104.00 W/m2
10:30 7.3 °C 5.8 °C 1000.2 hPa SSW 1.4 km/h 4.8 km/h 90% 0.0 mm 104.00 W/m2
10:35 7.4 °C 5.9 °C 1000.2 hPa Calm   4.8 km/h 90% 0.0 mm 104.00 W/m2
10:40 7.6 °C 6.1 °C 1000.2 hPa WSW 4.7 km/h 4.8 km/h 90% 0.0 mm 111.00 W/m2
10:45 7.7 °C 6.2 °C 1000.2 hPa WSW 3.2 km/h 4.8 km/h 90% 0.0 mm 107.00 W/m2
10:50 7.8 °C 6.3 °C 1000.2 hPa WSW 9.7 km/h 11.3 km/h 90% 0.0 mm 105.00 W/m2
10:55 7.9 °C 6.4 °C 1000.2 hPa SW 6.4 km/h 9.7 km/h 90% 0.0 mm 118.00 W/m2
11:00 8.0 °C 6.3 °C 1000.2 hPa SW 1.4 km/h 8.0 km/h 89% 0.0 mm 128.00 W/m2
11:05 8.1 °C 6.4 °C 1000.2 hPa Calm   3.2 km/h 89% 0.0 mm 128.00 W/m2
11:10 8.2 °C 6.5 °C 1000.2 hPa SSW 6.4 km/h 12.9 km/h 89% 0.0 mm 109.00 W/m2
11:15 8.2 °C 6.3 °C 1000.2 hPa SSW 1.4 km/h 8.0 km/h 88% 0.0 mm 100.00 W/m2
11:20 8.3 °C 6.4 °C 999.9 hPa WSW 4.7 km/h 6.4 km/h 88% 0.0 mm 93.00 W/m2
11:25 8.3 °C 6.4 °C 999.5 hPa SW 3.2 km/h 9.7 km/h 88% 0.0 mm 83.00 W/m2
11:30 8.3 °C 6.4 °C 999.5 hPa SSW 3.2 km/h 4.8 km/h 88% 0.0 mm 83.00 W/m2
11:35 8.3 °C 6.4 °C 999.5 hPa SW 3.2 km/h 8.0 km/h 88% 0.0 mm 88.00 W/m2
11:40 8.3 °C 6.3 °C 999.2 hPa SSW 3.2 km/h 6.4 km/h 87% 0.0 mm 95.00 W/m2
11:45 8.3 °C 6.3 °C 999.2 hPa SSW 6.4 km/h 8.0 km/h 87% 0.0 mm 95.00 W/m2
11:50 8.3 °C 6.3 °C 999.2 hPa SW 9.7 km/h 16.1 km/h 87% 0.0 mm 95.00 W/m2
11:55 8.4 °C 6.4 °C 998.9 hPa WSW 6.4 km/h 6.4 km/h 87% 0.0 mm 91.00 W/m2
12:00 8.4 °C 6.2 °C 998.9 hPa South 7.9 km/h 14.5 km/h 86% 0.0 mm 91.00 W/m2
12:05 8.5 °C 6.3 °C 998.9 hPa SSW 1.4 km/h 9.7 km/h 86% 0.0 mm 91.00 W/m2
12:10 8.5 °C 6.3 °C 998.5 hPa SSW 6.4 km/h 11.3 km/h 86% 0.0 mm 91.00 W/m2
12:15 8.5 °C 6.3 °C 998.5 hPa South 3.2 km/h 11.3 km/h 86% 0.0 mm 79.00 W/m2
12:20 8.5 °C 6.3 °C 998.5 hPa SSW 1.4 km/h 6.4 km/h 86% 0.0 mm 74.00 W/m2
12:25 8.6 °C 6.4 °C 998.5 hPa South 3.2 km/h 12.9 km/h 86% 0.0 mm 72.00 W/m2
12:30 8.6 °C 6.4 °C 998.2 hPa SSW 6.4 km/h 8.0 km/h 86% 0.0 mm 69.00 W/m2
12:35 8.5 °C 6.3 °C 998.2 hPa WSW 1.4 km/h 16.1 km/h 86% 0.0 mm 62.00 W/m2
12:40 8.5 °C 6.3 °C 998.2 hPa SW 1.4 km/h 6.4 km/h 86% 0.0 mm 60.00 W/m2
12:45 8.5 °C 6.3 °C 997.9 hPa SW 4.7 km/h 9.7 km/h 86% 0.0 mm 62.00 W/m2
12:50 8.5 °C 6.3 °C 997.9 hPa SSW 4.7 km/h 8.0 km/h 86% 0.0 mm 60.00 W/m2
12:56 8.5 °C 6.3 °C 997.9 hPa WSW 4.7 km/h 8.0 km/h 86% 0.0 mm 56.00 W/m2
13:00 8.4 °C 6.2 °C 997.5 hPa South 11.1 km/h 14.5 km/h 86% 0.0 mm 58.00 W/m2
13:05 8.4 °C 6.0 °C 997.5 hPa SSW 4.7 km/h 17.7 km/h 85% 0.0 mm 56.00 W/m2
13:10 8.4 °C 6.0 °C 997.2 hPa SSW 3.2 km/h 9.7 km/h 85% 0.0 mm 53.00 W/m2
13:15 8.4 °C 5.9 °C 997.2 hPa SW 6.4 km/h 11.3 km/h 84% 0.0 mm 47.00 W/m2
13:20 8.4 °C 5.7 °C 997.2 hPa SW 13.0 km/h 12.9 km/h 83% 0.0 mm 37.00 W/m2
13:25 8.4 °C 5.5 °C 997.2 hPa SW 7.9 km/h 16.1 km/h 82% 0.0 mm 28.00 W/m2
13:30 8.3 °C 5.6 °C 996.8 hPa WSW 7.9 km/h 14.5 km/h 83% 0.0 mm 26.00 W/m2
13:35 8.2 °C 5.5 °C 996.8 hPa SW 4.7 km/h 11.3 km/h 83% 0.0 mm 28.00 W/m2
13:40 8.2 °C 5.3 °C 996.5 hPa WSW 13.0 km/h 12.9 km/h 82% 0.0 mm 33.00 W/m2
13:45 8.3 °C 5.2 °C 996.5 hPa WSW 7.9 km/h 11.3 km/h 81% 0.0 mm 39.00 W/m2
13:50 8.3 °C 5.1 °C 996.5 hPa West 3.2 km/h 8.0 km/h 80% 0.0 mm 40.00 W/m2
13:55 8.2 °C 5.1 °C 996.5 hPa SW 3.2 km/h 6.4 km/h 81% 0.0 mm 37.00 W/m2
14:00 8.1 °C 5.0 °C 996.2 hPa SW 6.4 km/h 9.7 km/h 81% 0.0 mm 46.00 W/m2
14:05 8.0 °C 4.9 °C 996.5 hPa South 9.7 km/h 9.7 km/h 81% 0.0 mm 35.00 W/m2
14:10 7.9 °C 5.0 °C 996.2 hPa SSW 3.2 km/h 6.4 km/h 82% 0.0 mm 30.00 W/m2
14:15 7.9 °C 5.2 °C 996.2 hPa SSW 3.2 km/h 6.4 km/h 83% 0.0 mm 39.00 W/m2
14:20 7.8 °C 5.3 °C 995.8 hPa SSW 9.7 km/h 12.9 km/h 84% 0.0 mm 28.00 W/m2
14:26 7.8 °C 5.3 °C 995.8 hPa SSW 3.2 km/h 8.0 km/h 84% 0.0 mm 39.00 W/m2
14:30 7.8 °C 5.3 °C 995.8 hPa South 9.7 km/h 9.7 km/h 84% 0.0 mm 30.00 W/m2
14:35 7.7 °C 5.3 °C 995.8 hPa South 4.7 km/h 17.7 km/h 85% 0.0 mm 25.00 W/m2
14:40 7.6 °C 5.2 °C 995.5 hPa South 3.2 km/h 11.3 km/h 85% 0.0 mm 30.00 W/m2
14:45 7.4 °C 5.0 °C 995.5 hPa SW 1.4 km/h 6.4 km/h 85% 0.0 mm 74.00 W/m2
14:50 7.4 °C 5.2 °C 995.5 hPa SSW 7.9 km/h 8.0 km/h 86% 0.0 mm 81.00 W/m2
14:55 7.3 °C 4.9 °C 995.1 hPa South 9.7 km/h 14.5 km/h 85% 0.0 mm 83.00 W/m2
15:00 7.3 °C 4.9 °C 995.1 hPa SSW 9.7 km/h 9.7 km/h 85% 0.0 mm 98.00 W/m2
15:05 7.4 °C 5.0 °C 995.1 hPa WNW 3.2 km/h 9.7 km/h 85% 0.0 mm 58.00 W/m2
15:11 7.4 °C 5.0 °C 995.1 hPa WSW 3.2 km/h 4.8 km/h 85% 0.0 mm 37.00 W/m2
15:15 7.4 °C 5.0 °C 995.1 hPa WSW 3.2 km/h 8.0 km/h 85% 0.0 mm 30.00 W/m2
15:20 7.4 °C 4.9 °C 995.1 hPa WSW 6.4 km/h 8.0 km/h 84% 0.0 mm 28.00 W/m2
15:25 7.4 °C 4.9 °C 995.1 hPa WSW 4.7 km/h 6.4 km/h 84% 0.0 mm 30.00 W/m2
15:30 7.3 °C 4.8 °C 995.1 hPa West 6.4 km/h 9.7 km/h 84% 0.0 mm 28.00 W/m2
15:35 7.3 °C 4.8 °C 994.8 hPa WSW 3.2 km/h 6.4 km/h 84% 0.0 mm 37.00 W/m2
15:40 7.3 °C 4.8 °C 994.8 hPa WSW 6.4 km/h 11.3 km/h 84% 0.0 mm 47.00 W/m2
15:46 7.2 °C 4.5 °C 994.8 hPa WSW 3.2 km/h 9.7 km/h 83% 0.0 mm 46.00 W/m2
15:50 7.2 °C 4.5 °C 994.8 hPa WSW 7.9 km/h 14.5 km/h 83% 0.0 mm 47.00 W/m2
15:55 7.2 °C 4.5 °C 994.8 hPa WNW 4.7 km/h 6.4 km/h 83% 0.0 mm 46.00 W/m2
16:00 7.2 °C 4.5 °C 994.5 hPa West 4.7 km/h 6.4 km/h 83% 0.0 mm 40.00 W/m2
16:05 7.1 °C 4.4 °C 994.5 hPa NW 9.7 km/h 11.3 km/h 83% 0.0 mm 39.00 W/m2
16:10 7.1 °C 4.4 °C 994.5 hPa SW 1.4 km/h 6.4 km/h 83% 0.0 mm 39.00 W/m2
16:15 7.1 °C 4.6 °C 994.5 hPa West 4.7 km/h 9.7 km/h 84% 0.0 mm 30.00 W/m2
16:20 7.1 °C 4.6 °C 994.1 hPa West 3.2 km/h 6.4 km/h 84% 0.0 mm 23.00 W/m2
16:25 7.1 °C 4.6 °C 994.1 hPa West 3.2 km/h 6.4 km/h 84% 0.0 mm 21.00 W/m2
16:30 7.0 °C 4.5 °C 994.1 hPa WNW 6.4 km/h 8.0 km/h 84% 0.0 mm 14.00 W/m2
16:35 6.9 °C 4.4 °C 994.1 hPa WSW 1.4 km/h 3.2 km/h 84% 0.0 mm 11.00 W/m2
16:40 6.9 °C 4.4 °C 994.1 hPa WSW 4.7 km/h 8.0 km/h 84% 0.0 mm 7.00 W/m2
16:45 6.9 °C 4.4 °C 994.1 hPa West 3.2 km/h 4.8 km/h 84% 0.0 mm 5.00 W/m2
16:50 6.9 °C 4.6 °C 994.1 hPa West 6.4 km/h 8.0 km/h 85% 0.0 mm 0.00 W/m2
16:55 6.8 °C 4.5 °C 994.1 hPa West 3.2 km/h 9.7 km/h 85% 0.0 mm 0.00 W/m2
17:00 6.8 °C 4.5 °C 993.8 hPa SW 6.4 km/h 6.4 km/h 85% 0.0 mm 0.00 W/m2
17:05 6.7 °C 4.4 °C 994.1 hPa SSW 4.7 km/h 4.8 km/h 85% 0.0 mm 0.00 W/m2
17:10 6.6 °C 4.3 °C 993.8 hPa SW 3.2 km/h 6.4 km/h 85% 0.0 mm 0.00 W/m2
17:15 6.5 °C 4.3 °C 993.8 hPa South 3.2 km/h 8.0 km/h 86% 0.0 mm 0.00 W/m2
17:20 6.4 °C 4.2 °C 993.8 hPa SSW 4.7 km/h 8.0 km/h 86% 0.0 mm 0.00 W/m2
17:25 6.4 °C 4.2 °C 993.5 hPa South 4.7 km/h 4.8 km/h 86% 0.0 mm 0.00 W/m2
17:30 6.3 °C 4.3 °C 993.5 hPa SSW 3.2 km/h 6.4 km/h 87% 0.0 mm 0.00 W/m2
17:35 6.2 °C 4.2 °C 993.5 hPa SW 1.4 km/h 6.4 km/h 87% 0.0 mm 0.00 W/m2
17:40 6.2 °C 4.2 °C 993.5 hPa SW 6.4 km/h 11.3 km/h 87% 0.0 mm 0.00 W/m2
17:45 6.1 °C 4.3 °C 993.5 hPa SW 3.2 km/h 9.7 km/h 88% 0.0 mm 0.00 W/m2
17:50 6.1 °C 4.3 °C 993.5 hPa WSW 4.7 km/h 11.3 km/h 88% 0.0 mm 0.00 W/m2
17:55 6.1 °C 4.3 °C 993.5 hPa WSW 7.9 km/h 11.3 km/h 88% 0.0 mm 0.00 W/m2
18:01 6.1 °C 4.3 °C 993.5 hPa WSW 9.7 km/h 11.3 km/h 88% 0.0 mm 0.00 W/m2
18:05 6.1 °C 4.3 °C 993.5 hPa SW 11.1 km/h 11.3 km/h 88% 0.0 mm 0.00 W/m2
18:10 6.1 °C 4.4 °C 993.5 hPa SW 1.4 km/h 8.0 km/h 89% 0.0 mm 0.00 W/m2
18:15 6.1 °C 4.4 °C 993.1 hPa SW 6.4 km/h 8.0 km/h 89% 0.0 mm 0.00 W/m2
18:20 6.1 °C 4.4 °C 993.1 hPa SW 1.4 km/h 3.2 km/h 89% 0.0 mm 0.00 W/m2
18:25 6.1 °C 4.4 °C 993.1 hPa SSW 1.4 km/h 4.8 km/h 89% 0.0 mm 0.00 W/m2
18:30 6.1 °C 4.4 °C 993.1 hPa SSW 4.7 km/h 6.4 km/h 89% 0.0 mm 0.00 W/m2
18:35 6.1 °C 4.4 °C 992.8 hPa SE 7.9 km/h 8.0 km/h 89% 0.0 mm 0.00 W/m2
18:40 6.0 °C 4.3 °C 992.4 hPa SE 1.4 km/h 4.8 km/h 89% 0.0 mm 0.00 W/m2
18:45 6.0 °C 4.3 °C 992.8 hPa SE 1.4 km/h 3.2 km/h 89% 0.0 mm 0.00 W/m2
18:50 6.1 °C 4.4 °C 992.8 hPa SW 1.4 km/h 3.2 km/h 89% 0.0 mm 0.00 W/m2
18:55 6.1 °C 4.4 °C 992.4 hPa ESE 1.4 km/h 4.8 km/h 89% 0.0 mm 0.00 W/m2
19:00 6.0 °C 4.5 °C 992.4 hPa East 3.2 km/h 8.0 km/h 90% 0.0 mm 0.00 W/m2
19:05 5.9 °C 4.4 °C 992.4 hPa East 3.2 km/h 4.8 km/h 90% 0.0 mm 0.00 W/m2
19:10 5.8 °C 4.3 °C 992.4 hPa NNW 7.9 km/h 9.7 km/h 90% 0.0 mm 0.00 W/m2
19:15 6.0 °C 4.5 °C 992.1 hPa NNW 6.4 km/h 8.0 km/h 90% 0.0 mm 0.00 W/m2
19:20 6.0 °C 4.5 °C 992.4 hPa NW 6.4 km/h 8.0 km/h 90% 0.0 mm 0.00 W/m2
19:25 6.0 °C 4.5 °C 992.4 hPa WNW 4.7 km/h 8.0 km/h 90% 0.0 mm 0.00 W/m2
19:30 6.1 °C 4.6 °C 992.4 hPa NW 4.7 km/h 6.4 km/h 90% 0.0 mm 0.00 W/m2
19:35 6.1 °C 4.6 °C 992.4 hPa Calm   3.2 km/h 90% 0.0 mm 0.00 W/m2
19:40 6.1 °C 4.6 °C 992.4 hPa WSW 3.2 km/h 6.4 km/h 90% 0.0 mm 0.00 W/m2
19:45 6.1 °C 4.6 °C 992.4 hPa WSW 3.2 km/h 4.8 km/h 90% 0.0 mm 0.00 W/m2
19:50 6.2 °C 4.7 °C 992.4 hPa WSW 4.7 km/h 4.8 km/h 90% 0.0 mm 0.00 W/m2
19:55 6.3 °C 4.6 °C 992.1 hPa SSW 11.1 km/h 14.5 km/h 89% 0.0 mm 0.00 W/m2
20:00 6.4 °C 4.7 °C 992.1 hPa WSW 4.7 km/h 8.0 km/h 89% 0.0 mm 0.00 W/m2
20:05 6.4 °C 4.6 °C 991.8 hPa WSW 4.7 km/h 8.0 km/h 88% 0.0 mm 0.00 W/m2
20:10 6.4 °C 4.4 °C 991.8 hPa West 3.2 km/h 4.8 km/h 87% 0.0 mm 0.00 W/m2
20:15 6.4 °C 4.4 °C 991.8 hPa Calm   1.6 km/h 87% 0.0 mm 0.00 W/m2
20:20 6.3 °C 4.3 °C 991.8 hPa Calm   3.2 km/h 87% 0.0 mm 0.00 W/m2
20:25 6.2 °C 4.2 °C 991.8 hPa Calm   3.2 km/h 87% 0.0 mm 0.00 W/m2
20:30 6.2 °C 4.2 °C 991.8 hPa Calm   1.6 km/h 87% 0.0 mm 0.00 W/m2
20:35 6.2 °C 4.2 °C 991.4 hPa South 1.4 km/h 6.4 km/h 87% 0.0 mm 0.00 W/m2
20:40 6.1 °C 4.1 °C 991.4 hPa South 3.2 km/h 4.8 km/h 87% 0.0 mm 0.00 W/m2
20:45 6.1 °C 4.1 °C 991.4 hPa SW 1.4 km/h 4.8 km/h 87% 0.0 mm 0.00 W/m2
20:50 6.1 °C 4.1 °C 991.4 hPa SSW 1.4 km/h 1.6 km/h 87% 0.0 mm 0.00 W/m2
20:55 6.1 °C 4.1 °C 991.4 hPa SW 6.4 km/h 9.7 km/h 87% 0.0 mm 0.00 W/m2
21:00 6.1 °C 4.1 °C 991.4 hPa SSW 3.2 km/h 4.8 km/h 87% 0.0 mm 0.00 W/m2
21:05 6.1 °C 4.1 °C 991.1 hPa South 4.7 km/h 11.3 km/h 87% 0.0 mm 0.00 W/m2
21:10 6.0 °C 3.8 °C 991.1 hPa SW 6.4 km/h 16.1 km/h 86% 0.0 mm 0.00 W/m2
21:15 6.1 °C 3.9 °C 991.1 hPa SSW 13.0 km/h 12.9 km/h 86% 0.0 mm 0.00 W/m2
21:20 6.1 °C 3.9 °C 991.1 hPa SSW 6.4 km/h 16.1 km/h 86% 0.0 mm 0.00 W/m2
21:25 6.1 °C 3.8 °C 991.1 hPa SW 7.9 km/h 12.9 km/h 85% 0.0 mm 0.00 W/m2
21:30 6.1 °C 3.8 °C 990.7 hPa WSW 7.9 km/h 9.7 km/h 85% 0.0 mm 0.00 W/m2
21:35 6.1 °C 3.8 °C 991.1 hPa SW 4.7 km/h 12.9 km/h 85% 0.0 mm 0.00 W/m2
21:40 6.2 °C 3.9 °C 990.7 hPa SSW 11.1 km/h 16.1 km/h 85% 0.0 mm 0.00 W/m2
21:45 6.3 °C 3.8 °C 990.7 hPa SW 6.4 km/h 17.7 km/h 84% 0.0 mm 0.00 W/m2
21:50 6.3 °C 3.8 °C 991.1 hPa West 9.7 km/h 19.3 km/h 84% 0.0 mm 0.00 W/m2
21:55 6.3 °C 3.8 °C 990.7 hPa WSW 9.7 km/h 16.1 km/h 84% 0.0 mm 0.00 W/m2
22:00 6.3 °C 3.8 °C 990.7 hPa West 4.7 km/h 12.9 km/h 84% 0.0 mm 0.00 W/m2
22:05 6.3 °C 3.8 °C 990.7 hPa West 11.1 km/h 12.9 km/h 84% 0.0 mm 0.00 W/m2
22:10 6.3 °C 4.0 °C 990.7 hPa SW 6.4 km/h 9.7 km/h 85% 0.0 mm 0.00 W/m2
22:15 6.2 °C 3.9 °C 990.4 hPa WSW 6.4 km/h 11.3 km/h 85% 0.0 mm 0.00 W/m2
22:20 6.2 °C 3.9 °C 990.7 hPa WNW 3.2 km/h 11.3 km/h 85% 0.0 mm 0.00 W/m2
22:25 6.2 °C 3.9 °C 990.7 hPa West 4.7 km/h 8.0 km/h 85% 0.0 mm 0.00 W/m2
22:30 6.2 °C 4.0 °C 990.7 hPa NW 4.7 km/h 12.9 km/h 86% 0.0 mm 0.00 W/m2
22:35 5.8 °C 3.6 °C 990.7 hPa WNW 17.7 km/h 27.4 km/h 86% 0.3 mm 0.00 W/m2
22:40 5.3 °C 3.3 °C 990.7 hPa NW 14.3 km/h 16.1 km/h 87% 0.5 mm 0.00 W/m2
22:45 5.0 °C 3.2 °C 990.7 hPa West 11.1 km/h 16.1 km/h 88% 0.5 mm 0.00 W/m2
22:50 4.8 °C 3.0 °C 990.7 hPa NNW 6.4 km/h 14.5 km/h 88% 0.5 mm 0.00 W/m2
22:55 4.7 °C 3.0 °C 990.7 hPa West 7.9 km/h 19.3 km/h 89% 0.8 mm 0.00 W/m2
23:01 4.6 °C 3.1 °C 990.7 hPa WNW 13.0 km/h 33.8 km/h 90% 1.0 mm 0.00 W/m2
23:05 4.4 °C 2.9 °C 990.7 hPa WNW 11.1 km/h 24.1 km/h 90% 1.3 mm 0.00 W/m2
23:10 4.3 °C 3.0 °C 990.7 hPa West 7.9 km/h 12.9 km/h 91% 1.3 mm 0.00 W/m2
23:15 4.3 °C 3.0 °C 990.4 hPa West 9.7 km/h 12.9 km/h 91% 1.5 mm 0.00 W/m2
23:20 4.3 °C 3.0 °C 990.1 hPa West 11.1 km/h 16.1 km/h 91% 1.5 mm 0.00 W/m2
23:25 4.3 °C 3.0 °C 989.7 hPa WNW 1.4 km/h 1.6 km/h 91% 1.5 mm 0.00 W/m2
23:30 4.2 °C 2.9 °C 989.7 hPa West 1.4 km/h 4.8 km/h 91% 1.5 mm 0.00 W/m2
23:35 4.2 °C 2.9 °C 989.4 hPa WNW 1.4 km/h 3.2 km/h 91% 1.3 mm 0.00 W/m2
23:40 4.2 °C 2.9 °C 989.7 hPa Calm   1.6 km/h 91% 1.0 mm 0.00 W/m2
23:45 4.2 °C 2.9 °C 989.4 hPa South 3.2 km/h 4.8 km/h 91% 0.8 mm 0.00 W/m2
23:50 4.2 °C 2.7 °C 989.7 hPa Calm   1.6 km/h 90% 0.8 mm 0.00 W/m2
23:55 4.1 °C 2.6 °C 989.7 hPa SSW 1.4 km/h 4.8 km/h 90% 0.5 mm 0.00 W/m2